Time;durP1;ratioP1;P1;durP2;ratioP2;P2;SDS_P1;SDS_P2;PMS_P1;PMS_P2;Temp;Humidity;BMP_temperature;BMP_pressure;BME280_temperature;BME280_humidity;BME280_pressure;Samples;Min_cycle;Max_cycle;Signal;HPM_P1;HPM_P2
2023/04/01 00:01:19;;;;;;;1.07;0.90;;;;;;;3.72;63.17;101297.16;1844018;78;21009;-49
2023/04/01 00:03:48;;;;;;;2.70;1.07;;;;;;;3.69;63.13;101307.59;1843967;78;21457;-51
2023/04/01 00:06:19;;;;;;;0.80;0.80;;;;;;;3.67;63.14;101306.70;1844068;78;21057;-53
2023/04/01 00:08:48;;;;;;;3.33;1.42;;;;;;;3.66;63.27;101301.08;1872125;75;21007;-47
2023/04/01 00:11:17;;;;;;;1.17;0.80;;;;;;;3.68;63.21;101293.69;1868786;76;21132;-48
2023/04/01 00:13:46;;;;;;;2.70;1.25;;;;;;;3.70;63.17;101289.78;1888788;76;21506;-49
2023/04/01 00:16:15;;;;;;;2.58;0.90;;;;;;;3.69;63.42;101288.06;1852573;77;21154;-46
2023/04/01 00:18:44;;;;;;;1.12;0.80;;;;;;;3.73;64.25;101281.97;1877756;76;21065;-47
2023/04/01 00:21:13;;;;;;;1.10;0.75;;;;;;;3.78;63.75;101280.23;1880134;76;21044;-47
2023/04/01 00:23:41;;;;;;;3.75;0.90;;;;;;;3.83;63.71;101275.85;1880128;76;21036;-45
2023/04/01 00:26:11;;;;;;;0.98;0.80;;;;;;;3.87;63.78;101270.20;1879998;76;21076;-46
2023/04/01 00:28:41;;;;;;;2.83;1.00;;;;;;;3.89;63.63;101272.80;1877886;76;21115;-46
2023/04/01 00:31:11;;;;;;;1.57;0.90;;;;;;;3.89;63.60;101266.30;1852036;76;21166;-46
2023/04/01 00:33:40;;;;;;;1.62;1.10;;;;;;;3.85;63.46;101274.14;1865054;76;21518;-45
2023/04/01 00:36:11;;;;;;;1.35;0.80;;;;;;;3.79;63.40;101271.53;1848659;76;21096;-47
2023/04/01 00:38:42;;;;;;;1.27;0.88;;;;;;;3.77;63.48;101269.81;1848389;78;21111;-46
2023/04/01 00:41:16;;;;;;;2.95;1.20;;;;;;;3.77;63.49;101269.81;1877584;76;21064;-47
2023/04/01 00:43:48;;;;;;;1.47;0.82;;;;;;;3.78;63.41;101268.51;1865088;76;21297;-48
2023/04/01 00:46:17;;;;;;;1.67;0.90;;;;;;;3.79;63.78;101270.23;1861691;77;21048;-49
2023/04/01 00:48:51;;;;;;;1.42;0.75;;;;;;;3.79;63.74;101270.23;1861821;77;21533;-46
2023/04/01 00:51:23;;;;;;;2.62;0.90;;;;;;;3.82;63.76;101270.23;1861921;77;21032;-47
2023/04/01 00:53:55;;;;;;;1.52;0.88;;;;;;;3.82;63.61;101268.92;1860755;77;21127;-47
2023/04/01 00:56:33;;;;;;;1.65;0.70;;;;;;;3.79;63.50;101266.77;1861829;76;21114;-47
2023/04/01 00:59:04;;;;;;;2.00;0.80;;;;;;;3.81;63.69;101264.58;1861883;76;21127;-47
2023/04/01 01:01:35;;;;;;;1.55;0.90;;;;;;;3.83;63.55;101271.95;1861968;77;21494;-48
2023/04/01 01:04:04;;;;;;;1.57;0.98;;;;;;;3.83;63.57;101267.18;1861821;76;21494;-47
2023/04/01 01:06:52;;;;;;;1.27;0.90;;;;;;;3.82;63.55;101261.11;1861501;76;21091;-50
2023/04/01 01:09:33;;;;;;;1.37;0.70;;;;;;;3.84;63.70;101255.45;1861448;77;21518;-49
2023/04/01 01:12:23;;;;;;;0.90;0.75;;;;;;;3.84;63.59;101261.11;1861682;75;21079;-50
2023/04/01 01:15:22;;;;;;;1.67;1.22;;;;;;;3.82;63.55;101263.72;1857827;76;21114;-46
2023/04/01 01:18:12;;;;;;;1.32;0.70;;;;;;;3.83;63.44;101262.83;1861331;77;21040;-47
2023/04/01 01:21:20;;;;;;;1.72;1.10;;;;;;;3.80;63.41;101258.95;1861323;75;21032;-45
2023/04/01 01:24:05;;;;;;;3.50;1.20;;;;;;;3.79;63.50;101266.32;1859397;76;21060;-45
2023/04/01 01:26:36;;;;;;;2.17;1.45;;;;;;;3.71;63.38;101260.28;1832892;77;21493;-46
2023/04/01 01:29:36;;;;;;;2.70;1.10;;;;;;;3.69;63.33;101252.91;1832729;77;21031;-49
2023/04/01 01:32:14;;;;;;;2.58;0.75;;;;;;;3.68;63.34;101253.31;1832764;77;21497;-49
2023/04/01 01:35:07;;;;;;;1.45;0.80;;;;;;;3.68;63.40;101254.63;1837011;77;21097;-46
2023/04/01 01:37:38;;;;;;;3.05;1.12;;;;;;;3.66;63.43;101257.66;1827349;78;21113;-46
2023/04/01 01:40:11;;;;;;;1.10;1.00;;;;;;;3.65;63.29;101251.16;1850452;76;21577;-43
2023/04/01 01:42:43;;;;;;;0.70;0.70;;;;;;;3.64;63.27;101255.95;1833355;77;21046;-44
2023/04/01 01:45:17;;;;;;;1.15;0.85;;;;;;;3.63;63.28;101256.39;1853382;77;21173;-43
2023/04/01 01:47:48;;;;;;;1.47;1.00;;;;;;;3.64;63.22;101255.95;1856864;77;21064;-44
2023/04/01 01:50:18;;;;;;;1.77;1.00;;;;;;;3.62;63.23;101261.16;1858662;77;21091;-46
2023/04/01 01:52:47;;;;;;;0.80;0.70;;;;;;;3.60;63.24;101256.83;1843619;76;21129;-44
2023/04/01 01:55:28;;;;;;;1.02;0.80;;;;;;;3.63;63.31;101255.50;1858293;77;21020;-44
2023/04/01 01:58:00;;;;;;;1.50;0.78;;;;;;;3.65;63.37;101260.27;1854211;76;21576;-44
2023/04/01 02:00:29;;;;;;;1.47;0.62;;;;;;;3.68;63.27;101260.27;1829614;77;21053;-44
2023/04/01 02:03:01;;;;;;;1.25;0.60;;;;;;;3.68;63.28;101257.67;1841047;77;21445;-47
2023/04/01 02:05:32;;;;;;;1.20;0.72;;;;;;;3.68;63.16;101257.22;1856210;77;21525;-44
2023/04/01 02:08:05;;;;;;;1.97;0.90;;;;;;;3.68;63.15;101253.77;1857614;75;21113;-47
2023/04/01 02:10:37;;;;;;;1.67;0.90;;;;;;;3.70;63.37;101253.31;1843756;77;21175;-43
2023/04/01 02:13:09;;;;;;;2.35;0.85;;;;;;;3.71;63.28;101255.06;1858116;77;21738;-43
2023/04/01 02:15:40;;;;;;;1.02;0.93;;;;;;;3.71;63.12;101256.78;1858286;76;21096;-43
2023/04/01 02:18:10;;;;;;;1.42;0.70;;;;;;;3.70;63.18;101249.86;1830883;77;21171;-44
2023/04/01 02:20:41;;;;;;;0.88;0.70;;;;;;;3.71;63.46;101258.97;1850621;77;21443;-44
2023/04/01 02:23:11;;;;;;;1.67;0.75;;;;;;;3.73;63.52;101255.92;1852768;77;21023;-43
2023/04/01 02:25:42;;;;;;;1.40;0.80;;;;;;;3.75;63.55;101257.23;1845847;77;21102;-44
2023/04/01 02:28:17;;;;;;;1.62;1.00;;;;;;;3.77;63.56;101261.55;1858110;77;21064;-45
2023/04/01 02:30:45;;;;;;;1.03;0.83;;;;;;;3.75;63.49;101255.92;1841059;76;21126;-43
2023/04/01 02:33:14;;;;;;;1.65;1.02;;;;;;;3.78;63.65;101253.30;1842234;77;22005;-44
2023/04/01 02:35:43;;;;;;;1.65;0.80;;;;;;;3.77;63.64;101246.37;1857348;77;21106;-44
2023/04/01 02:38:12;;;;;;;4.28;1.07;;;;;;;3.76;63.57;101254.63;1858400;76;21040;-44
2023/04/01 02:40:53;;;;;;;0.90;0.82;;;;;;;3.73;63.70;101256.38;1863157;76;21578;-44
2023/04/01 02:43:22;;;;;;;3.35;1.02;;;;;;;3.72;63.80;101258.08;1858256;76;21064;-46
2023/04/01 02:45:51;;;;;;;2.05;0.93;;;;;;;3.73;63.87;101263.73;1851546;77;21158;-47
2023/04/01 02:48:19;;;;;;;2.50;1.15;;;;;;;3.77;64.03;101256.34;1864586;75;20997;-45
2023/04/01 02:50:49;;;;;;;1.80;1.00;;;;;;;3.75;63.95;101251.58;1902915;75;21050;-46
2023/04/01 02:53:18;;;;;;;3.12;1.20;;;;;;;3.73;64.04;101246.81;1901216;75;21181;-45
2023/04/01 02:55:50;;;;;;;1.55;0.60;;;;;;;3.72;64.15;101252.02;1864598;75;21587;-45
2023/04/01 02:58:17;;;;;;;1.80;1.00;;;;;;;3.74;64.39;101247.22;1859780;75;21073;-45
2023/04/01 03:00:46;;;;;;;1.77;1.20;;;;;;;3.79;64.57;101254.59;1853147;75;21050;-46
2023/04/01 03:03:15;;;;;;;1.37;0.88;;;;;;;3.84;64.71;101256.77;1856188;75;21473;-47
2023/04/01 03:05:43;;;;;;;2.10;1.25;;;;;;;3.91;64.87;101265.44;1855721;77;21006;-48
2023/04/01 03:08:12;;;;;;;3.40;0.80;;;;;;;3.95;65.25;101269.76;1856154;75;21042;-44
2023/04/01 03:10:41;;;;;;;1.95;0.30;;;;;;;3.96;65.10;101261.05;1858781;75;21115;-47
2023/04/01 03:13:09;;;;;;;1.37;0.90;;;;;;;4.01;65.02;101255.84;1855932;75;21528;-47
2023/04/01 03:15:38;;;;;;;1.75;0.57;;;;;;;4.06;65.05;101251.48;1855980;75;21042;-47
2023/04/01 03:18:07;;;;;;;0.85;0.50;;;;;;;4.10;65.11;101249.73;1861294;75;21057;-46
2023/04/01 03:20:35;;;;;;;1.35;1.00;;;;;;;4.17;65.11;101255.32;1901658;75;21111;-48
2023/04/01 03:23:04;;;;;;;0.98;0.62;;;;;;;4.20;65.07;101249.66;1902557;75;21009;-46
2023/04/01 03:25:33;;;;;;;2.60;0.70;;;;;;;4.26;65.13;101247.49;1887530;75;21578;-50
2023/04/01 03:28:03;;;;;;;0.88;0.88;;;;;;;4.26;64.98;101246.19;1858789;75;21505;-44
2023/04/01 03:30:32;;;;;;;1.67;0.98;;;;;;;4.31;65.00;101240.94;1859074;75;21096;-44
2023/04/01 03:33:02;;;;;;;1.85;0.80;;;;;;;4.35;64.95;101240.04;1863942;75;21077;-44
2023/04/01 03:35:32;;;;;;;1.17;0.80;;;;;;;4.40;65.06;101239.58;1855793;77;21090;-43
2023/04/01 03:38:01;;;;;;;2.72;0.78;;;;;;;4.56;64.97;101246.89;1864945;75;21531;-45
2023/04/01 03:40:30;;;;;;;1.12;0.85;;;;;;;4.83;64.84;101240.59;1922466;74;21503;-49
2023/04/01 03:42:59;;;;;;;2.65;0.50;;;;;;;5.13;64.59;101247.79;1902930;75;21085;-51
2023/04/01 03:45:28;;;;;;;1.30;0.50;;;;;;;5.39;64.14;101244.94;1902802;75;21072;-47
2023/04/01 03:47:57;;;;;;;1.22;0.70;;;;;;;5.70;63.34;101254.64;1902810;75;21170;-48
2023/04/01 03:50:25;;;;;;;5.08;0.90;;;;;;;6.00;62.90;101248.67;1857566;75;21006;-47
2023/04/01 03:52:54;;;;;;;1.02;0.60;;;;;;;6.23;62.22;101255.36;1886871;75;21095;-45
2023/04/01 03:55:23;;;;;;;0.85;0.60;;;;;;;6.42;61.90;101252.94;1901056;75;21122;-44
2023/04/01 03:57:51;;;;;;;0.70;0.70;;;;;;;6.66;61.78;101255.65;1901864;75;21159;-44
2023/04/01 04:00:21;;;;;;;0.93;0.57;;;;;;;6.90;61.32;101249.17;1873992;74;21095;-44
2023/04/01 04:02:51;;;;;;;2.15;0.80;;;;;;;7.16;60.36;101251.82;1892894;75;21037;-46
2023/04/01 04:05:21;;;;;;;1.05;0.80;;;;;;;7.42;60.57;101242.66;1883706;75;21073;-45
2023/04/01 04:07:50;;;;;;;0.72;0.62;;;;;;;7.64;59.87;101241.36;1893362;75;20989;-46
2023/04/01 04:10:19;;;;;;;1.12;0.70;;;;;;;7.90;59.60;101249.16;1861798;75;21554;-47
2023/04/01 04:12:49;;;;;;;1.87;0.55;;;;;;;8.19;59.43;101246.38;1855561;75;21539;-45
2023/04/01 04:15:19;;;;;;;2.30;1.10;;;;;;;8.46;58.89;101250.21;1864168;75;21165;-46
2023/04/01 04:17:48;;;;;;;0.85;0.62;;;;;;;8.66;58.38;101252.39;1866450;75;21622;-51
2023/04/01 04:20:17;;;;;;;2.72;0.80;;;;;;;8.90;57.66;101257.52;1858838;75;21889;-47
2023/04/01 04:22:46;;;;;;;1.65;0.50;;;;;;;8.98;56.50;101252.97;1861453;74;21046;-47
2023/04/01 04:25:14;;;;;;;1.35;0.72;;;;;;;9.13;56.27;101251.72;1857513;75;21062;-49
2023/04/01 04:27:43;;;;;;;2.20;0.70;;;;;;;9.35;56.31;101257.72;1855836;77;21574;-48
2023/04/01 04:30:14;;;;;;;1.92;0.88;;;;;;;9.53;56.10;101248.05;1862542;75;21053;-49
2023/04/01 04:32:42;;;;;;;1.60;0.80;;;;;;;9.72;54.92;101251.50;1902990;75;21041;-50
2023/04/01 04:35:12;;;;;;;1.02;0.70;;;;;;;9.93;55.01;101247.42;1899717;75;21033;-49
2023/04/01 04:37:41;;;;;;;1.42;0.75;;;;;;;10.27;54.61;101246.44;1902943;75;21145;-48
2023/04/01 04:40:10;;;;;;;1.42;0.85;;;;;;;10.54;54.59;101246.95;1889820;74;21107;-46
2023/04/01 04:42:39;;;;;;;1.50;0.75;;;;;;;10.70;52.48;101252.62;1878957;74;21177;-47
2023/04/01 04:45:11;;;;;;;1.00;1.00;;;;;;;10.73;52.14;101246.38;1875954;76;21071;-46
2023/04/01 04:47:41;;;;;;;0.80;0.75;;;;;;;10.74;50.67;101245.02;1874690;76;21086;-46
2023/04/01 04:50:11;;;;;;;5.55;0.62;;;;;;;10.95;50.75;101234.70;1869032;74;21063;-49
2023/04/01 04:52:40;;;;;;;1.92;0.80;;;;;;;11.06;50.06;101233.89;1837125;78;21135;-46
2023/04/01 04:55:09;;;;;;;1.07;0.50;;;;;;;11.28;50.40;101237.13;1866023;76;21517;-46
2023/04/01 04:57:38;;;;;;;1.77;0.75;;;;;;;11.66;49.74;101234.95;1853738;76;21082;-43
2023/04/01 05:00:10;;;;;;;0.93;0.45;;;;;;;11.70;48.28;101226.85;1860180;76;21144;-43
2023/04/01 05:02:55;;;;;;;1.20;0.40;;;;;;;11.71;46.79;101231.66;1855929;77;21106;-45
2023/04/01 05:05:23;;;;;;;0.90;0.62;;;;;;;11.90;46.79;101232.77;1859765;77;21010;-45
2023/04/01 05:07:52;;;;;;;2.20;0.75;;;;;;;11.96;46.19;101223.29;1870355;77;21049;-46
2023/04/01 05:10:21;;;;;;;0.70;0.68;;;;;;;12.14;45.07;101237.59;1870243;77;21069;-47
2023/04/01 05:12:50;;;;;;;1.30;0.55;;;;;;;12.10;45.14;101222.79;1870412;77;21578;-49
2023/04/01 05:15:21;;;;;;;2.15;0.70;;;;;;;12.32;45.08;101228.11;1869735;76;21151;-46
2023/04/01 05:17:50;;;;;;;1.50;0.70;;;;;;;12.62;44.74;101230.94;1870428;77;21508;-45
2023/04/01 05:20:19;;;;;;;2.33;0.70;;;;;;;12.90;43.96;101228.88;1870243;77;21096;-45
2023/04/01 05:22:47;;;;;;;1.25;0.60;;;;;;;13.09;43.72;101232.09;1870259;77;21536;-46
2023/04/01 05:25:17;;;;;;;2.25;0.80;;;;;;;13.26;43.97;101230.05;1870364;77;21085;-47
2023/04/01 05:27:45;;;;;;;1.62;0.70;;;;;;;13.48;43.01;101238.84;1868198;77;21518;-44
2023/04/01 05:30:14;;;;;;;4.65;0.93;;;;;;;13.44;42.62;101233.27;1870224;77;21037;-46
2023/04/01 05:32:44;;;;;;;0.55;0.55;;;;;;;13.53;42.01;101223.23;1869284;75;21056;-45
2023/04/01 05:35:13;;;;;;;2.70;0.90;;;;;;;13.75;40.96;101231.93;1866913;77;21041;-46
2023/04/01 05:37:42;;;;;;;2.47;0.70;;;;;;;13.82;41.67;101229.88;1862126;77;21107;-46
2023/04/01 05:40:11;;;;;;;6.05;0.90;;;;;;;14.21;42.31;101229.84;1870231;77;21037;-45
2023/04/01 05:42:40;;;;;;;1.72;0.62;;;;;;;14.38;40.97;101232.17;1870348;77;21116;-43
2023/04/01 05:45:09;;;;;;;2.83;0.82;;;;;;;14.50;40.57;101222.33;1882602;76;21169;-45
2023/04/01 05:47:51;;;;;;;2.15;0.80;;;;;;;14.92;39.98;101229.16;1851551;77;21104;-44
2023/04/01 05:50:20;;;;;;;2.35;0.60;;;;;;;15.12;39.87;101216.68;1902935;75;21069;-45
2023/04/01 05:52:49;;;;;;;2.55;0.85;;;;;;;15.18;38.64;101214.59;1902839;75;21127;-46
2023/04/01 05:55:18;;;;;;;1.10;0.80;;;;;;;15.13;38.33;101217.09;1902943;75;21060;-45
2023/04/01 05:57:49;;;;;;;0.68;0.65;;;;;;;15.05;37.84;101218.33;1902924;75;21484;-45
2023/04/01 06:00:19;;;;;;;4.35;0.90;;;;;;;15.18;37.84;101205.75;1902854;75;21037;-45
2023/04/01 06:02:48;;;;;;;0.95;0.62;;;;;;;15.16;37.86;101216.91;1902831;75;21017;-47
2023/04/01 06:05:25;;;;;;;4.28;0.82;;;;;;;15.46;38.20;101217.63;1902689;75;20993;-45
2023/04/01 06:08:05;;;;;;;1.12;0.70;;;;;;;15.81;38.73;101220.63;1902948;75;21186;-44
2023/04/01 06:10:37;;;;;;;4.55;0.65;;;;;;;16.04;37.50;101219.01;1902551;75;21110;-44
2023/04/01 06:13:14;;;;;;;0.95;0.70;;;;;;;15.99;37.95;101217.91;1889565;75;21043;-44
2023/04/01 06:15:58;;;;;;;1.00;0.57;;;;;;;16.15;36.83;101221.45;1902542;75;21531;-46
2023/04/01 06:18:39;;;;;;;2.42;0.80;;;;;;;16.25;36.69;101223.60;1893270;75;21029;-45
2023/04/01 06:21:32;;;;;;;4.55;0.90;;;;;;;16.11;36.30;101226.55;1873503;75;21564;-47
2023/04/01 06:24:06;;;;;;;6.12;0.80;;;;;;;16.38;36.60;101222.00;1902303;75;21151;-47
2023/04/01 06:26:46;;;;;;;2.05;0.82;;;;;;;16.72;36.24;101234.23;1902940;75;21041;-45
2023/04/01 06:29:24;;;;;;;1.37;0.70;;;;;;;16.53;35.39;101226.94;1901833;75;21045;-46
2023/04/01 06:32:00;;;;;;;1.57;0.72;;;;;;;16.25;35.41;101216.95;1902367;75;21048;-45
2023/04/01 06:35:05;;;;;;;0.95;0.72;;;;;;;16.18;35.25;101212.00;1902029;75;21106;-46
2023/04/01 06:37:55;;;;;;;2.40;1.02;;;;;;;16.41;35.19;101216.50;1870514;76;21134;-47
2023/04/01 06:40:33;;;;;;;1.50;0.65;;;;;;;16.50;35.17;101214.66;1874873;75;21182;-47
2023/04/01 06:43:07;;;;;;;1.72;0.70;;;;;;;16.39;34.77;101203.77;1869005;77;21098;-45
2023/04/01 06:45:59;;;;;;;0.68;0.60;;;;;;;16.43;34.75;101206.63;1868025;76;21562;-45
2023/04/01 06:48:51;;;;;;;1.10;0.75;;;;;;;16.46;34.88;101203.81;1871927;77;21088;-46
2023/04/01 06:51:46;;;;;;;2.30;1.30;;;;;;;16.71;35.10;101197.97;1872016;77;21059;-45
2023/04/01 06:54:45;;;;;;;0.88;0.70;;;;;;;17.38;34.88;101196.30;1891312;76;21153;-45
2023/04/01 06:57:26;;;;;;;0.50;0.50;;;;;;;17.68;33.84;101201.55;1849874;75;21154;-44
2023/04/01 06:59:58;;;;;;;3.83;0.95;;;;;;;17.50;32.87;101191.56;1892992;75;21020;-44
2023/04/01 07:06:11;;;;;;;1.37;0.60;;;;;;;17.34;32.81;101190.30;1905803;75;21086;-47
2023/04/01 07:08:42;;;;;;;;;;;;;;;17.66;32.45;101203.94;1907761;75;21056;-47
2023/04/01 07:11:13;;;;;;;0.88;0.80;;;;;;;17.89;32.25;101207.85;1874020;76;20405;-43
2023/04/01 07:14:05;;;;;;;1.57;1.00;;;;;;;18.06;32.08;101197.01;1835464;76;21048;-43
2023/04/01 07:16:43;;;;;;;2.37;0.75;;;;;;;18.16;31.64;101190.61;1880710;75;21044;-48
2023/04/01 07:19:14;;;;;;;2.87;1.00;;;;;;;18.38;30.90;101200.75;1906175;75;21562;-48
2023/04/01 07:21:53;;;;;;;1.30;0.60;;;;;;;18.72;31.37;101194.56;1904690;75;21080;-47
2023/04/01 07:24:26;;;;;;;1.55;0.68;;;;;;;19.21;30.62;101159.24;1904693;75;21044;-49
2023/04/01 07:27:03;;;;;;;1.12;0.72;;;;;;;19.08;30.28;101201.08;1905674;75;21069;-46
2023/04/01 07:29:33;;;;;;;0.93;0.60;;;;;;;19.02;29.72;101197.02;1905748;75;21043;-47
2023/04/01 07:32:27;;;;;;;1.05;0.70;;;;;;;19.37;30.03;101194.25;1905795;75;21060;-45
2023/04/01 07:35:08;;;;;;;1.90;0.80;;;;;;;19.15;29.73;101209.05;1906149;75;21073;-49
2023/04/01 07:37:55;;;;;;;1.15;0.90;;;;;;;19.00;29.75;101196.76;1868454;75;21565;-47
2023/04/01 07:40:43;;;;;;;1.47;0.60;;;;;;;19.04;30.20;101187.09;1904308;75;21045;-45
2023/04/01 07:43:21;;;;;;;1.85;1.00;;;;;;;19.19;29.89;101187.86;1906046;75;21491;-46
2023/04/01 07:46:00;;;;;;;1.47;0.72;;;;;;;18.93;29.25;101199.45;1901760;74;21146;-48
2023/04/01 07:48:38;;;;;;;3.62;0.60;;;;;;;18.70;29.76;101196.45;1892310;75;21040;-45
2023/04/01 07:51:34;;;;;;;3.55;0.80;;;;;;;18.65;29.78;101198.10;1903067;75;21582;-46
2023/04/01 07:54:15;;;;;;;3.30;0.88;;;;;;;18.71;30.07;101195.51;1902626;75;21052;-46
2023/04/01 07:56:53;;;;;;;0.60;0.60;;;;;;;18.93;29.77;101198.97;1902713;75;21056;-48
2023/04/01 07:59:46;;;;;;;2.30;0.65;;;;;;;19.08;29.99;101197.08;1901141;75;21064;-46
2023/04/01 08:02:28;;;;;;;2.45;0.57;;;;;;;19.10;29.70;101198.67;1901555;75;21591;-45
2023/04/01 08:05:06;;;;;;;7.03;0.82;;;;;;;19.45;30.11;101197.23;1903061;75;21111;-45
2023/04/01 08:07:59;;;;;;;1.27;0.80;;;;;;;19.75;29.10;101221.46;1902676;75;21052;-44
2023/04/01 08:10:55;;;;;;;1.12;0.70;;;;;;;19.56;29.18;101200.01;1902872;75;21090;-48
2023/04/01 08:14:14;;;;;;;2.58;0.82;;;;;;;19.62;29.29;101208.95;1871309;75;21141;-48
2023/04/01 08:17:09;;;;;;;2.47;0.78;;;;;;;19.89;29.19;101203.98;1902916;75;21173;-46
2023/04/01 08:20:01;;;;;;;2.22;0.98;;;;;;;19.61;28.59;101215.73;1888896;75;21136;-47
2023/04/01 08:22:39;;;;;;;1.02;0.60;;;;;;;19.34;29.07;101205.12;1909550;74;21268;-48
2023/04/01 08:25:12;;;;;;;0.90;0.60;;;;;;;19.64;29.62;101201.68;1921144;74;21114;-49
2023/04/01 08:27:44;;;;;;;1.92;0.93;;;;;;;19.94;29.27;101196.50;1907797;74;21029;-46
2023/04/01 08:30:28;;;;;;;1.37;0.90;;;;;;;20.18;28.75;101194.38;1902441;75;21138;-49
2023/04/01 08:33:06;;;;;;;0.98;0.88;;;;;;;20.15;28.75;101201.27;1902376;75;21041;-46
2023/04/01 08:35:44;;;;;;;0.95;0.70;;;;;;;19.56;28.52;101202.68;1892232;75;21037;-46
2023/04/01 08:38:15;;;;;;;1.37;0.88;;;;;;;19.22;29.05;101205.02;1891061;75;21117;-46
2023/04/01 08:41:02;;;;;;;2.37;0.80;;;;;;;19.24;29.42;101189.74;1888067;75;21581;-52
2023/04/01 08:43:53;;;;;;;4.12;0.95;;;;;;;19.29;29.12;101212.11;1896755;75;21105;-48
2023/04/01 08:46:42;;;;;;;1.37;1.07;;;;;;;19.47;29.14;101209.99;1871351;76;21060;-46
2023/04/01 08:49:34;;;;;;;0.82;0.80;;;;;;;19.49;29.17;101210.73;1882901;76;21017;-50
2023/04/01 08:52:21;;;;;;;0.72;0.57;;;;;;;19.60;29.16;101213.52;1880956;76;21126;-45
2023/04/01 08:55:09;;;;;;;1.00;0.65;;;;;;;19.73;29.21;101210.03;1880560;76;21586;-42
2023/04/01 08:57:45;;;;;;;2.98;1.15;;;;;;;19.50;29.36;101207.61;1877299;76;21068;-42
2023/04/01 09:00:27;;;;;;;2.12;0.80;;;;;;;19.54;29.58;101204.61;1890970;74;21097;-41
2023/04/01 09:03:22;;;;;;;1.95;0.93;;;;;;;19.40;29.63;101192.68;1879201;76;21096;-48
2023/04/01 09:05:59;;;;;;;0.78;0.50;;;;;;;19.40;29.70;101194.89;1878922;76;21092;-45
2023/04/01 09:08:32;;;;;;;1.00;0.90;;;;;;;19.64;29.70;101192.79;1889329;76;21054;-47
2023/04/01 09:11:36;;;;;;;4.00;0.80;;;;;;;19.64;29.19;101194.13;1893709;76;21139;-45
2023/04/01 09:14:27;;;;;;;0.85;0.57;;;;;;;19.37;29.38;101193.77;1826819;78;21715;-45
2023/04/01 09:17:09;;;;;;;2.80;0.78;;;;;;;19.34;29.72;101187.28;1848737;76;21164;-44
2023/04/01 09:19:58;;;;;;;2.12;0.80;;;;;;;19.53;29.42;101162.85;1861846;77;21054;-43
2023/04/01 09:22:44;;;;;;;1.00;0.70;;;;;;;19.49;29.62;101181.36;1861817;77;21480;-43
2023/04/01 09:25:33;;;;;;;1.62;0.90;;;;;;;19.54;29.68;101171.22;1860910;75;21512;-42
2023/04/01 09:28:08;;;;;;;3.72;0.70;;;;;;;19.74;29.50;101178.36;1861370;75;21058;-44
2023/04/01 09:30:49;;;;;;;0.80;0.60;;;;;;;19.82;29.31;101180.84;1820058;79;21050;-44
2023/04/01 09:33:43;;;;;;;1.85;0.80;;;;;;;19.68;28.93;101183.13;1861373;77;21090;-48
2023/04/01 09:36:34;;;;;;;2.15;0.65;;;;;;;19.12;29.60;101194.57;1821415;79;21549;-46
2023/04/01 09:39:40;;;;;;;1.40;0.75;;;;;;;18.96;29.45;101197.90;1861969;77;21072;-44
2023/04/01 09:42:29;;;;;;;1.30;0.75;;;;;;;18.52;30.09;101200.72;1821469;79;21190;-44
2023/04/01 09:45:07;;;;;;;2.90;0.70;;;;;;;18.46;30.03;101186.91;1860260;76;21123;-43
2023/04/01 09:47:48;;;;;;;2.52;0.62;;;;;;;18.63;29.99;101189.84;1841403;77;21159;-42
2023/04/01 09:50:19;;;;;;;0.82;0.70;;;;;;;18.70;29.78;101188.45;1875581;74;21129;-43
2023/04/01 09:52:51;;;;;;;1.35;0.70;;;;;;;18.24;29.73;101186.11;1883419;75;21503;-48
2023/04/01 09:55:45;;;;;;;3.77;1.02;;;;;;;18.07;30.39;101176.05;1902451;75;21097;-46
2023/04/01 09:58:39;;;;;;;1.95;0.90;;;;;;;18.50;30.43;101170.63;1901576;75;21068;-48
2023/04/01 10:01:38;;;;;;;1.32;0.70;;;;;;;18.77;29.88;101157.74;1902805;75;21056;-46
2023/04/01 10:04:28;;;;;;;4.03;0.70;;;;;;;18.28;29.26;101172.98;1902967;75;21126;-45
2023/04/01 10:07:15;;;;;;;8.85;1.00;;;;;;;18.02;29.60;101168.85;1902856;75;21052;-46
2023/04/01 10:09:53;;;;;;;1.17;0.80;;;;;;;18.09;29.66;101162.19;1893968;75;21527;-47
2023/04/01 10:12:43;;;;;;;0.85;0.60;;;;;;;18.30;29.50;101150.59;1901124;75;21041;-46
2023/04/01 10:15:20;;;;;;;1.85;0.95;;;;;;;18.44;29.45;101148.38;1900391;75;21124;-44
2023/04/01 10:18:04;;;;;;;1.12;0.78;;;;;;;18.49;29.45;101158.73;1900116;75;21108;-44
2023/04/01 10:21:02;;;;;;;1.65;0.70;;;;;;;18.32;29.85;101146.51;1900983;75;21115;-45
2023/04/01 10:23:44;;;;;;;1.67;0.80;;;;;;;18.24;29.74;101148.80;1900139;75;21164;-45
2023/04/01 10:26:23;;;;;;;2.75;0.60;;;;;;;18.24;29.74;101153.67;1877441;75;21056;-47
2023/04/01 10:29:16;;;;;;;0.93;0.50;;;;;;;17.83;29.14;101142.95;1901358;74;21568;-44
2023/04/01 10:32:04;;;;;;;1.05;0.60;;;;;;;17.68;29.67;101145.63;1888825;75;21511;-47
2023/04/01 10:34:55;;;;;;;1.67;0.90;;;;;;;17.42;30.17;101126.42;1870499;76;21123;-46
2023/04/01 10:37:43;;;;;;;2.08;0.62;;;;;;;17.17;30.29;101136.77;1870639;77;21071;-44
2023/04/01 10:40:30;;;;;;;1.47;0.80;;;;;;;17.24;30.64;101144.38;1872513;76;21061;-46
2023/04/01 10:43:31;;;;;;;1.72;0.80;;;;;;;17.23;30.91;101146.19;1871603;75;21041;-48
2023/04/01 10:46:07;;;;;;;3.85;0.70;;;;;;;17.38;30.21;101142.22;1876254;76;21060;-47
2023/04/01 10:48:57;;;;;;;4.28;0.60;;;;;;;17.53;30.18;101141.26;1863398;76;21520;-44
2023/04/01 10:51:50;;;;;;;1.07;0.60;;;;;;;17.26;30.09;101141.98;1844391;77;21144;-46
2023/04/01 10:54:29;;;;;;;0.90;0.70;;;;;;;17.17;30.55;101141.21;1856978;76;21096;-47
2023/04/01 10:57:36;;;;;;;0.95;0.70;;;;;;;16.85;30.49;101136.02;1863042;75;21132;-49
2023/04/01 11:00:43;;;;;;;1.47;0.75;;;;;;;16.60;29.95;101157.85;1848040;77;21060;-46
2023/04/01 11:03:38;;;;;;;2.08;0.80;;;;;;;16.43;30.87;101146.83;1815625;76;21437;-48
2023/04/01 11:06:20;;;;;;;1.12;0.80;;;;;;;16.14;31.29;101145.37;1812267;76;21499;-48
2023/04/01 11:09:18;;;;;;;0.75;0.70;;;;;;;16.08;30.82;101157.64;1804992;77;21120;-43
2023/04/01 11:12:09;;;;;;;2.45;0.60;;;;;;;15.89;31.20;101150.33;1862097;76;21114;-43
2023/04/01 11:14:55;;;;;;;0.62;0.60;;;;;;;15.86;31.33;101139.86;1860989;77;21115;-45
2023/04/01 11:17:51;;;;;;;2.15;0.90;;;;;;;15.77;30.97;101140.77;1853576;77;21039;-44
2023/04/01 11:20:26;;;;;;;1.65;0.62;;;;;;;15.79;30.63;101125.60;1853965;77;21119;-47
2023/04/01 11:23:10;;;;;;;0.93;0.70;;;;;;;15.71;31.14;101133.08;1842147;77;21085;-48
2023/04/01 11:25:48;;;;;;;3.67;0.75;;;;;;;15.55;31.34;101126.91;1841714;76;21095;-44
2023/04/01 11:28:49;;;;;;;0.50;0.42;;;;;;;15.44;31.24;101120.84;1852372;77;21164;-41
2023/04/01 11:31:46;;;;;;;0.82;0.60;;;;;;;15.01;31.74;101131.91;1860802;76;21042;-41
2023/04/01 11:34:23;;;;;;;1.17;0.70;;;;;;;14.58;32.09;101130.56;1859922;76;21041;-43
2023/04/01 11:37:22;;;;;;;0.90;0.80;;;;;;;14.13;31.89;101131.37;1859549;77;21065;-41
2023/04/01 11:40:12;;;;;;;1.62;0.60;;;;;;;13.84;32.51;101133.59;1847137;77;21101;-41
2023/04/01 11:43:14;;;;;;;2.45;0.60;;;;;;;13.58;33.16;101124.67;1860412;77;21152;-46
2023/04/01 11:45:54;;;;;;;;;;;;;;;13.34;34.13;101140.72;1853487;76;21182;-47
2023/04/01 11:48:28;;;;;;;5.00;2.35;;;;;;;13.43;34.56;101143.42;1893428;75;20127;-46
2023/04/01 11:51:21;;;;;;;1.40;0.70;;;;;;;13.49;33.93;101125.94;1902279;75;21130;-47
2023/04/01 11:54:17;;;;;;;2.12;1.55;;;;;;;13.35;33.80;101144.20;1902286;75;21068;-47
2023/04/01 11:57:23;;;;;;;2.33;0.80;;;;;;;13.25;34.27;101132.68;1903015;75;21103;-47
2023/04/01 12:00:13;;;;;;;1.40;0.93;;;;;;;13.19;33.84;101139.57;1903144;75;21068;-47
2023/04/01 12:03:20;;;;;;;20.92;7.67;;;;;;;13.17;33.82;101126.00;1898847;75;21100;-50
2023/04/01 12:06:25;;;;;;;1.17;0.95;;;;;;;13.16;34.00;101124.30;1887958;75;21471;-47
2023/04/01 12:09:27;;;;;;;3.87;0.80;;;;;;;13.09;33.87;101125.87;1895281;75;21024;-49
2023/04/01 12:12:20;;;;;;;1.85;0.80;;;;;;;13.01;34.22;101113.46;1892117;75;21017;-51
2023/04/01 12:15:08;;;;;;;2.35;0.50;;;;;;;12.75;33.67;101100.89;1902067;75;21131;-46
2023/04/01 12:17:39;;;;;;;1.27;0.70;;;;;;;12.73;33.69;101111.14;1900710;74;21029;-46
2023/04/01 12:20:26;;;;;;;2.30;1.05;;;;;;;12.75;33.91;101110.14;1887994;75;21135;-48
2023/04/01 12:23:12;;;;;;;1.12;0.70;;;;;;;12.75;34.08;101112.78;1902935;75;21499;-46
2023/04/01 12:26:04;;;;;;;2.52;1.20;;;;;;;12.75;33.10;101104.86;1866614;76;21045;-47